Time;durP1;ratioP1;P1;durP2;ratioP2;P2;SDS_P1;SDS_P2;PMS_P1;PMS_P2;Temp;Humidity;BMP_temperature;BMP_pressure;BME280_temperature;BME280_humidity;BME280_pressure;Samples;Min_cycle;Max_cycle;Signal;HPM_P1;HPM_P2
2021/01/04 09:52:03;;;;;;;12.77;5.90;;;3.00;99.90;;;;;;4823883;23;20364;-72
2021/01/04 09:54:35;;;;;;;14.90;7.20;;;3.00;99.90;;;;;;4957381;29;20581;-72
2021/01/04 09:57:07;;;;;;;12.93;6.60;;;3.00;99.90;;;;;;4956568;28;20215;-73
2021/01/04 09:59:39;;;;;;;10.07;5.53;;;2.90;99.90;;;;;;4956345;29;20302;-80
2021/01/04 10:02:06;;;;;;;15.07;6.77;;;3.00;99.90;;;;;;4954072;29;20212;-76
2021/01/04 10:04:37;;;;;;;13.03;7.10;;;3.10;99.90;;;;;;4957030;29;20579;-76
2021/01/04 10:07:07;;;;;;;14.03;7.17;;;3.00;99.90;;;;;;4957292;29;20266;-75
2021/01/04 10:09:37;;;;;;;12.63;6.73;;;3.00;99.90;;;;;;4957245;29;20227;-74
2021/01/04 10:12:07;;;;;;;11.47;6.27;;;3.10;99.90;;;;;;4956986;29;20563;-73
2021/01/04 10:14:34;;;;;;;13.07;6.10;;;3.00;99.90;;;;;;4956743;29;20208;-76
2021/01/04 10:17:02;;;;;;;12.47;6.07;;;3.00;99.90;;;;;;4954429;28;20697;-76
2021/01/04 10:19:32;;;;;;;10.00;5.53;;;3.00;99.90;;;;;;4956239;28;20215;-71
2021/01/04 10:22:04;;;;;;;12.63;5.23;;;3.10;99.90;;;;;;4955945;29;20294;-76
2021/01/04 10:24:37;;;;;;;10.50;5.87;;;3.00;99.90;;;;;;4956227;29;20737;-78
2021/01/04 10:27:05;;;;;;;12.40;6.40;;;3.00;99.90;;;;;;4956085;28;20216;-78
2021/01/04 10:29:33;;;;;;;11.63;5.93;;;3.00;99.90;;;;;;4956131;29;20215;-78
2021/01/04 10:32:08;;;;;;;10.50;5.90;;;2.90;99.90;;;;;;4955954;29;20223;-77
2021/01/04 10:34:41;;;;;;;9.80;5.37;;;3.00;99.90;;;;;;4956153;29;20666;-71
2021/01/04 10:37:23;;;;;;;13.43;6.47;;;3.10;99.90;;;;;;4955139;28;20311;-76
2021/01/04 10:39:58;;;;;;;10.17;5.63;;;3.20;99.90;;;;;;4955300;29;20211;-76
2021/01/04 10:42:26;;;;;;;10.57;5.50;;;3.20;99.90;;;;;;4956171;29;20211;-76
2021/01/04 10:45:02;;;;;;;10.33;5.70;;;3.30;99.90;;;;;;4956522;29;20208;-77
2021/01/04 10:47:34;;;;;;;12.10;6.20;;;3.20;99.90;;;;;;4961086;28;20299;-77
2021/01/04 10:50:12;;;;;;;12.13;6.37;;;3.20;99.90;;;;;;4967915;28;20330;-74
2021/01/04 10:52:38;;;;;;;9.03;5.90;;;3.10;99.90;;;;;;4955662;28;20231;-74
2021/01/04 10:55:18;;;;;;;10.20;5.63;;;3.20;99.90;;;;;;4958817;28;20208;-81
2021/01/04 10:57:48;;;;;;;9.80;6.03;;;3.20;99.90;;;;;;4963507;28;20227;-77
2021/01/04 11:00:18;;;;;;;12.37;6.20;;;3.40;99.90;;;;;;4957081;29;20212;-72
2021/01/04 11:02:46;;;;;;;11.03;6.10;;;3.50;99.90;;;;;;4956297;29;20205;-80
2021/01/04 11:05:15;;;;;;;10.77;5.77;;;3.40;99.90;;;;;;4955621;29;20216;-73
2021/01/04 11:07:41;;;;;;;12.23;6.57;;;3.30;99.90;;;;;;4955949;28;20231;-73
2021/01/04 11:10:22;;;;;;;11.50;6.53;;;3.20;99.90;;;;;;4951601;29;20228;-74
2021/01/04 11:12:50;;;;;;;12.03;5.77;;;3.30;99.90;;;;;;4944604;29;20236;-74
2021/01/04 11:15:25;;;;;;;11.93;5.93;;;3.30;99.90;;;;;;4941246;28;20219;-82
2021/01/04 11:18:00;;;;;;;10.97;6.20;;;3.20;99.90;;;;;;4965404;28;20285;-77
2021/01/04 11:20:26;;;;;;;12.27;6.67;;;3.20;99.90;;;;;;4955457;29;20663;-75
2021/01/04 11:23:04;;;;;;;11.83;6.43;;;3.20;99.90;;;;;;4955427;29;20212;-72
2021/01/04 11:25:31;;;;;;;15.20;6.37;;;3.20;99.90;;;;;;4954822;29;20207;-85
2021/01/04 11:27:58;;;;;;;15.20;6.70;;;3.30;99.90;;;;;;4954976;28;20235;-74
2021/01/04 11:30:25;;;;;;;9.70;5.87;;;3.60;99.90;;;;;;4955376;29;20212;-78
2021/01/04 11:32:51;;;;;;;12.53;6.33;;;3.60;99.90;;;;;;4954701;29;20228;-73
2021/01/04 11:35:18;;;;;;;9.17;5.53;;;3.70;99.90;;;;;;4955490;29;20276;-79
2021/01/04 11:37:45;;;;;;;11.73;5.83;;;3.70;99.90;;;;;;4955030;28;20231;-78
2021/01/04 11:40:13;;;;;;;14.13;6.87;;;3.60;99.90;;;;;;4954840;29;20571;-72
2021/01/04 11:42:42;;;;;;;11.20;6.20;;;3.70;99.90;;;;;;4953803;28;20212;-72
2021/01/04 11:45:10;;;;;;;12.03;6.30;;;3.70;99.90;;;;;;4955466;28;20208;-79
2021/01/04 11:47:37;;;;;;;9.80;5.97;;;3.80;99.90;;;;;;4954645;28;20236;-81
2021/01/04 11:50:06;;;;;;;9.93;5.33;;;3.80;99.90;;;;;;4954884;29;20299;-77
2021/01/04 11:52:32;;;;;;;12.50;6.53;;;3.70;99.90;;;;;;4954816;29;20274;-74
2021/01/04 11:54:59;;;;;;;10.23;5.67;;;3.70;99.90;;;;;;4954512;29;20212;-75
2021/01/04 11:57:25;;;;;;;11.17;5.90;;;3.70;99.90;;;;;;4954651;29;20235;-70
2021/01/04 11:59:52;;;;;;;10.37;5.87;;;3.70;99.90;;;;;;4948019;29;20205;-73
2021/01/04 12:02:18;;;;;;;10.33;6.23;;;3.60;99.90;;;;;;4935419;29;20209;-73
2021/01/04 12:04:45;;;;;;;13.50;6.33;;;3.60;99.90;;;;;;4935949;29;20224;-73
2021/01/04 12:07:11;;;;;;;11.10;5.80;;;3.60;99.90;;;;;;4940443;29;20221;-73
2021/01/04 12:09:38;;;;;;;12.97;6.10;;;3.50;99.90;;;;;;4940256;29;20215;-74
2021/01/04 12:12:05;;;;;;;11.67;6.07;;;3.60;99.90;;;;;;4935430;29;20660;-74
2021/01/04 12:14:32;;;;;;;10.63;5.83;;;3.50;99.90;;;;;;4935966;29;20689;-73
2021/01/04 12:17:03;;;;;;;11.47;6.27;;;3.70;99.90;;;;;;4935831;29;20209;-73
2021/01/04 12:19:29;;;;;;;12.03;5.90;;;3.70;99.90;;;;;;4935634;29;20268;-73
2021/01/04 12:22:00;;;;;;;16.43;8.07;;;3.60;99.90;;;;;;4935331;29;20683;-73
2021/01/04 12:24:26;;;;;;;14.27;6.67;;;3.60;99.90;;;;;;4935703;29;20227;-74
2021/01/04 12:26:53;;;;;;;15.73;7.23;;;3.70;99.90;;;;;;4935785;29;20209;-73
2021/01/04 12:29:19;;;;;;;11.30;6.53;;;3.70;99.90;;;;;;4935695;29;20564;-73
2021/01/04 12:31:45;;;;;;;11.53;6.57;;;3.80;99.90;;;;;;4935621;29;20564;-73
2021/01/04 12:34:13;;;;;;;12.40;6.40;;;3.70;99.90;;;;;;4935498;29;20236;-73
2021/01/04 12:36:39;;;;;;;11.60;6.47;;;3.70;99.90;;;;;;4935114;29;20213;-73
2021/01/04 12:39:06;;;;;;;10.70;6.10;;;3.80;99.90;;;;;;4935642;29;20274;-74
2021/01/04 12:41:36;;;;;;;11.10;6.30;;;3.60;99.90;;;;;;4935548;29;20209;-73
2021/01/04 12:44:03;;;;;;;11.73;6.30;;;3.30;99.90;;;;;;4935558;29;20672;-73
2021/01/04 12:46:29;;;;;;;12.33;6.67;;;3.40;99.90;;;;;;4935553;29;20213;-72
2021/01/04 12:48:55;;;;;;;14.97;6.93;;;3.50;99.90;;;;;;4935518;29;20229;-76
2021/01/04 12:51:22;;;;;;;10.90;5.67;;;3.50;99.90;;;;;;4937688;29;20215;-73
2021/01/04 12:53:49;;;;;;;13.83;6.67;;;3.50;99.90;;;;;;4944340;29;20228;-73
2021/01/04 12:56:16;;;;;;;13.30;6.07;;;3.40;99.90;;;;;;4944432;29;20207;-73
2021/01/04 12:58:43;;;;;;;15.53;7.77;;;3.30;99.90;;;;;;4945383;29;20223;-73
2021/01/04 13:01:10;;;;;;;13.93;7.17;;;3.40;99.90;;;;;;4940482;29;20252;-75
2021/01/04 13:03:36;;;;;;;13.30;7.60;;;3.50;99.90;;;;;;4935633;29;20216;-74
2021/01/04 13:06:03;;;;;;;15.07;7.17;;;3.50;99.90;;;;;;4944991;29;20219;-74
2021/01/04 13:08:30;;;;;;;13.57;7.07;;;3.60;99.90;;;;;;4954606;29;20238;-75
2021/01/04 13:10:56;;;;;;;13.73;6.90;;;3.50;99.90;;;;;;4954121;29;20212;-72
2021/01/04 13:13:22;;;;;;;11.93;6.97;;;3.60;99.90;;;;;;4956228;28;20240;-72
2021/01/04 13:15:49;;;;;;;11.57;5.97;;;3.40;99.90;;;;;;4958191;29;20256;-72
2021/01/04 13:18:15;;;;;;;14.60;6.83;;;3.30;99.90;;;;;;4957704;29;20627;-71
2021/01/04 13:20:41;;;;;;;14.20;7.27;;;3.50;99.90;;;;;;4957929;29;20216;-72
2021/01/04 13:23:07;;;;;;;14.00;7.20;;;3.50;99.90;;;;;;4957630;29;20687;-70
2021/01/04 13:25:35;;;;;;;12.90;6.13;;;3.50;99.90;;;;;;4957768;29;20211;-77
2021/01/04 13:28:03;;;;;;;14.57;7.03;;;3.50;99.90;;;;;;4953672;29;20236;-79
2021/01/04 13:30:29;;;;;;;11.57;6.57;;;3.40;99.90;;;;;;4938665;29;20204;-71
2021/01/04 13:32:56;;;;;;;15.03;6.80;;;3.50;99.90;;;;;;4938364;29;20259;-71
2021/01/04 13:35:22;;;;;;;17.40;6.70;;;3.50;99.90;;;;;;4938421;29;20212;-71
2021/01/04 13:37:48;;;;;;;14.47;7.10;;;3.60;99.90;;;;;;4937487;29;20224;-70
2021/01/04 13:40:16;;;;;;;15.23;6.80;;;3.60;99.90;;;;;;4947105;29;20260;-71
2021/01/04 13:42:43;;;;;;;12.70;6.70;;;3.70;99.90;;;;;;4943099;28;20205;-74
2021/01/04 13:45:10;;;;;;;13.27;7.47;;;3.80;99.90;;;;;;4955580;28;20263;-77
2021/01/04 13:47:37;;;;;;;13.57;6.67;;;3.80;99.90;;;;;;4948333;28;20240;-75
2021/01/04 13:50:03;;;;;;;14.57;7.30;;;3.90;99.90;;;;;;4949596;28;20252;-83
2021/01/04 13:52:30;;;;;;;13.00;6.90;;;4.00;99.90;;;;;;4948805;28;20239;-74
2021/01/04 13:54:56;;;;;;;13.37;7.50;;;4.10;99.90;;;;;;4954435;28;20571;-71
2021/01/04 13:57:25;;;;;;;12.70;6.77;;;4.00;99.90;;;;;;4968620;28;20228;-72
2021/01/04 13:59:52;;;;;;;11.90;6.77;;;4.00;99.90;;;;;;4964122;28;20215;-75
2021/01/04 14:02:18;;;;;;;13.33;6.53;;;4.00;99.90;;;;;;4960902;28;20207;-75
2021/01/04 14:04:47;;;;;;;12.47;7.00;;;3.90;99.90;;;;;;4963286;28;20640;-75
2021/01/04 14:07:15;;;;;;;12.47;6.80;;;4.00;99.90;;;;;;4963405;28;20232;-74
2021/01/04 14:09:41;;;;;;;12.03;6.27;;;4.10;99.90;;;;;;4955525;28;20215;-77
2021/01/04 14:12:09;;;;;;;13.27;6.70;;;4.10;99.90;;;;;;4966563;28;20411;-73
2021/01/04 14:14:35;;;;;;;10.33;6.10;;;3.70;99.90;;;;;;4966975;28;20281;-76
2021/01/04 14:17:03;;;;;;;12.23;6.47;;;3.60;99.90;;;;;;4963577;28;20219;-77
2021/01/04 14:19:29;;;;;;;11.17;6.50;;;3.50;99.90;;;;;;4962650;28;20212;-75
2021/01/04 14:21:59;;;;;;;10.53;6.17;;;3.40;99.90;;;;;;4957497;28;20214;-74
2021/01/04 14:24:26;;;;;;;7.30;4.93;;;3.40;99.90;;;;;;4962018;28;20208;-74
2021/01/04 14:26:52;;;;;;;11.53;5.57;;;3.30;99.90;;;;;;4956816;29;20212;-74
2021/01/04 14:29:18;;;;;;;9.50;5.90;;;3.20;99.90;;;;;;4956809;28;20259;-73
2021/01/04 14:31:47;;;;;;;11.77;6.03;;;3.20;99.90;;;;;;4956900;28;20211;-72
2021/01/04 14:34:16;;;;;;;11.17;5.80;;;3.40;99.90;;;;;;4956803;28;20251;-78
2021/01/04 14:36:43;;;;;;;8.47;5.27;;;3.40;99.90;;;;;;4956313;28;20572;-73
2021/01/04 14:39:10;;;;;;;11.93;5.57;;;3.30;99.90;;;;;;4956276;28;20259;-70
2021/01/04 14:41:37;;;;;;;10.17;6.47;;;3.30;99.90;;;;;;4956133;28;20240;-71
2021/01/04 14:44:04;;;;;;;10.50;5.93;;;3.20;99.90;;;;;;4956544;28;20204;-76
2021/01/04 14:46:31;;;;;;;12.67;6.20;;;3.10;99.90;;;;;;4956467;28;20559;-72
2021/01/04 14:48:57;;;;;;;8.37;5.40;;;2.90;99.90;;;;;;4956187;28;20235;-71
2021/01/04 14:51:24;;;;;;;9.03;5.53;;;3.00;99.90;;;;;;4956015;28;20286;-73
2021/01/04 14:53:50;;;;;;;10.13;5.77;;;2.90;99.90;;;;;;4956126;28;20239;-73
2021/01/04 14:56:18;;;;;;;9.93;6.03;;;2.90;99.90;;;;;;4956100;28;20659;-75
2021/01/04 14:58:44;;;;;;;11.00;6.20;;;2.90;99.90;;;;;;4957106;28;20235;-77
2021/01/04 15:01:12;;;;;;;11.27;6.33;;;3.00;99.90;;;;;;4956253;28;20207;-81
2021/01/04 15:03:39;;;;;;;11.67;6.07;;;3.10;99.90;;;;;;4956806;28;20212;-83
2021/01/04 15:06:07;;;;;;;10.57;5.63;;;3.20;99.90;;;;;;4956521;28;20212;-80
2021/01/04 15:08:36;;;;;;;9.80;6.53;;;3.30;99.90;;;;;;4955832;28;20379;-79
2021/01/04 15:11:02;;;;;;;10.77;6.00;;;3.30;99.90;;;;;;4955644;28;20545;-83
2021/01/04 15:13:28;;;;;;;11.67;6.13;;;3.20;99.90;;;;;;4956191;28;20243;-81
2021/01/04 15:15:55;;;;;;;9.43;5.67;;;3.20;99.90;;;;;;4957699;28;20216;-81
2021/01/04 15:18:21;;;;;;;8.97;5.57;;;3.10;99.90;;;;;;4955952;28;20247;-76
2021/01/04 15:20:48;;;;;;;12.50;5.70;;;3.20;99.90;;;;;;4955823;28;20215;-75
2021/01/04 15:23:14;;;;;;;12.20;5.60;;;3.20;99.90;;;;;;4955684;28;20203;-75
2021/01/04 15:25:41;;;;;;;9.50;5.57;;;3.20;99.90;;;;;;4955481;28;20208;-74
2021/01/04 15:28:07;;;;;;;10.37;5.90;;;3.20;99.90;;;;;;4956704;28;20236;-74
2021/01/04 15:30:34;;;;;;;10.40;5.57;;;3.10;99.90;;;;;;4956020;28;20228;-74
2021/01/04 15:33:00;;;;;;;11.70;5.70;;;3.20;99.90;;;;;;4953374;28;20702;-73
2021/01/04 15:35:26;;;;;;;10.00;5.63;;;3.10;99.90;;;;;;4955220;28;20671;-75
2021/01/04 15:37:52;;;;;;;8.57;5.07;;;3.10;99.90;;;;;;4954665;29;20255;-77
2021/01/04 15:40:19;;;;;;;9.87;6.37;;;3.20;99.90;;;;;;4954679;29;20686;-78
2021/01/04 15:42:46;;;;;;;10.33;5.77;;;3.20;99.90;;;;;;4954738;28;20212;-76
2021/01/04 15:45:14;;;;;;;8.07;5.07;;;3.30;99.90;;;;;;4955012;29;20263;-71
2021/01/04 15:47:40;;;;;;;10.30;5.80;;;3.20;99.90;;;;;;4954841;29;20223;-76
2021/01/04 15:50:07;;;;;;;9.20;5.47;;;3.30;99.90;;;;;;4954542;29;20224;-75
2021/01/04 15:52:34;;;;;;;11.97;6.17;;;3.30;99.90;;;;;;4954250;28;20262;-75
2021/01/04 15:55:00;;;;;;;10.07;5.57;;;3.40;99.90;;;;;;4955107;29;20240;-76
2021/01/04 15:57:26;;;;;;;8.20;5.20;;;3.30;99.90;;;;;;4954409;29;20232;-76
2021/01/04 15:59:53;;;;;;;9.20;5.30;;;3.30;99.90;;;;;;4955057;29;20204;-75
2021/01/04 16:02:19;;;;;;;11.27;5.57;;;3.30;99.90;;;;;;4954431;28;20207;-76
2021/01/04 16:04:46;;;;;;;9.83;5.50;;;3.50;99.90;;;;;;4954891;29;20254;-76
2021/01/04 16:07:12;;;;;;;10.23;5.37;;;3.50;99.90;;;;;;4954117;29;20587;-77
2021/01/04 16:09:39;;;;;;;11.93;5.50;;;3.60;99.90;;;;;;4954571;29;20224;-76
2021/01/04 16:12:06;;;;;;;8.83;5.00;;;3.60;99.90;;;;;;4954749;28;20214;-76
2021/01/04 16:14:33;;;;;;;8.93;4.83;;;3.70;99.90;;;;;;4954554;29;20239;-76
2021/01/04 16:17:03;;;;;;;7.97;5.13;;;3.80;99.90;;;;;;4954022;29;20219;-76
2021/01/04 16:19:31;;;;;;;8.47;4.50;;;3.90;99.90;;;;;;4954583;29;20208;-75
2021/01/04 16:21:57;;;;;;;6.70;4.03;;;4.10;99.90;;;;;;4953547;28;20212;-76
2021/01/04 16:24:24;;;;;;;11.07;4.77;;;4.00;99.90;;;;;;4954591;29;20212;-77
2021/01/04 16:26:51;;;;;;;8.77;4.90;;;4.00;99.90;;;;;;4954476;29;20212;-76
2021/01/04 16:29:17;;;;;;;8.77;5.03;;;4.00;99.90;;;;;;4954359;28;20212;-76
2021/01/04 16:31:48;;;;;;;8.03;4.43;;;4.00;99.90;;;;;;4954527;29;20208;-76
2021/01/04 16:34:16;;;;;;;10.13;5.57;;;3.90;99.90;;;;;;4954488;29;20236;-79
2021/01/04 16:36:42;;;;;;;8.63;5.17;;;4.00;99.90;;;;;;4954329;29;20212;-78
2021/01/04 16:39:09;;;;;;;8.80;4.70;;;4.10;99.90;;;;;;4954215;29;20236;-78
2021/01/04 16:41:35;;;;;;;8.37;4.70;;;4.10;99.90;;;;;;4954666;29;20551;-75
2021/01/04 16:44:01;;;;;;;8.00;4.87;;;4.00;99.90;;;;;;4954521;28;20211;-75
2021/01/04 16:46:28;;;;;;;9.03;5.00;;;4.10;99.90;;;;;;4954020;28;20212;-76
2021/01/04 16:48:54;;;;;;;7.93;4.30;;;4.00;99.90;;;;;;4956599;28;20228;-76
2021/01/04 16:51:26;;;;;;;7.47;4.30;;;4.00;99.90;;;;;;4972983;28;20683;-76
2021/01/04 16:53:53;;;;;;;8.83;4.73;;;3.90;99.90;;;;;;4957451;28;20319;-74
2021/01/04 16:56:19;;;;;;;9.13;3.93;;;4.00;99.90;;;;;;4968491;28;20206;-74
2021/01/04 16:58:46;;;;;;;7.53;3.50;;;3.70;99.90;;;;;;4962747;28;20607;-74
2021/01/04 17:01:13;;;;;;;5.73;3.53;;;3.80;99.90;;;;;;4951138;28;20501;-72
2021/01/04 17:03:39;;;;;;;5.77;3.60;;;3.90;99.90;;;;;;4967720;28;20314;-84
2021/01/04 17:06:06;;;;;;;8.47;4.30;;;4.10;99.90;;;;;;4977905;28;20218;-82
2021/01/04 17:08:33;;;;;;;6.90;3.40;;;4.10;99.90;;;;;;4976475;28;20234;-79
2021/01/04 17:10:59;;;;;;;6.93;3.37;;;4.10;99.90;;;;;;4976591;28;20207;-81
2021/01/04 17:13:25;;;;;;;6.87;3.70;;;4.10;99.90;;;;;;4962759;28;20240;-76
2021/01/04 17:15:52;;;;;;;6.13;3.47;;;4.00;99.90;;;;;;4957607;29;20211;-83
2021/01/04 17:18:18;;;;;;;6.87;3.40;;;4.00;99.90;;;;;;4958121;29;20227;-80
2021/01/04 17:20:44;;;;;;;6.90;3.57;;;4.00;99.90;;;;;;4957769;29;20208;-78
2021/01/04 17:23:10;;;;;;;6.80;3.10;;;3.80;99.90;;;;;;4960736;28;20235;-85
2021/01/04 17:25:37;;;;;;;5.87;3.13;;;3.80;99.90;;;;;;4961617;29;20240;-76
2021/01/04 17:28:04;;;;;;;5.67;3.23;;;3.90;99.90;;;;;;4970964;29;20236;-77
2021/01/04 17:30:30;;;;;;;5.93;3.10;;;3.70;99.90;;;;;;4964308;29;20191;-78
2021/01/04 17:32:57;;;;;;;5.27;3.20;;;3.60;99.90;;;;;;4961228;28;20263;-78
2021/01/04 17:35:23;;;;;;;5.60;2.63;;;3.70;99.90;;;;;;4974018;29;20204;-79
2021/01/04 17:37:49;;;;;;;5.27;3.13;;;3.60;99.90;;;;;;4964701;29;20243;-78
2021/01/04 17:40:17;;;;;;;4.90;3.20;;;3.70;99.90;;;;;;4968947;29;20212;-76
2021/01/04 17:42:45;;;;;;;5.40;3.33;;;3.70;99.90;;;;;;4967624;28;20215;-80
2021/01/04 17:45:15;;;;;;;3.73;2.73;;;3.80;99.90;;;;;;4956612;29;20679;-81
2021/01/04 17:47:43;;;;;;;4.43;2.67;;;3.80;99.90;;;;;;4956569;29;20738;-76
2021/01/04 17:50:10;;;;;;;6.27;3.00;;;3.80;99.90;;;;;;4956950;29;20223;-80
2021/01/04 17:52:37;;;;;;;5.80;2.87;;;4.00;99.90;;;;;;4956647;28;20215;-77
2021/01/04 17:55:04;;;;;;;4.43;2.57;;;4.00;99.90;;;;;;4956977;29;20240;-74
2021/01/04 17:57:30;;;;;;;3.77;2.60;;;4.20;99.90;;;;;;4957231;29;20232;-83
2021/01/04 17:59:57;;;;;;;5.53;2.63;;;4.40;99.90;;;;;;4955383;28;20208;-81
2021/01/04 18:02:23;;;;;;;3.67;2.27;;;4.50;99.90;;;;;;4956808;28;20216;-82
2021/01/04 18:04:50;;;;;;;4.53;2.50;;;4.50;99.90;;;;;;4956689;29;20682;-75
2021/01/04 18:07:16;;;;;;;4.60;2.50;;;4.50;99.90;;;;;;4956840;29;20242;-79
2021/01/04 18:09:43;;;;;;;6.33;2.77;;;4.30;99.90;;;;;;4955583;28;20690;-77
2021/01/04 18:12:10;;;;;;;4.93;2.47;;;4.10;99.90;;;;;;4956012;28;20200;-81
2021/01/04 18:14:39;;;;;;;4.40;2.53;;;4.10;99.90;;;;;;4956602;29;20601;-81
2021/01/04 18:17:06;;;;;;;5.47;3.10;;;3.80;99.90;;;;;;4955871;28;20215;-76
2021/01/04 18:19:33;;;;;;;3.93;2.50;;;3.70;99.90;;;;;;4956234;29;20219;-79
2021/01/04 18:21:59;;;;;;;5.00;2.67;;;3.70;99.90;;;;;;4956017;28;20204;-83
2021/01/04 18:24:26;;;;;;;3.73;2.20;;;3.90;99.90;;;;;;4956417;29;20295;-81
2021/01/04 18:26:52;;;;;;;4.47;2.33;;;4.00;99.90;;;;;;4952551;29;20200;-78
2021/01/04 18:29:25;;;;;;;8.07;3.50;;;4.00;99.90;;;;;;4944735;29;20200;-75
2021/01/04 18:31:51;;;;;;;5.53;3.00;;;3.90;99.90;;;;;;4949871;28;20517;-73
2021/01/04 18:34:22;;;;;;;8.60;3.60;;;4.00;99.90;;;;;;4956173;29;20243;-77
2021/01/04 18:36:51;;;;;;;7.00;3.00;;;4.00;99.90;;;;;;4956082;29;20303;-77
2021/01/04 18:39:18;;;;;;;5.87;3.10;;;3.90;99.90;;;;;;4956056;28;20211;-79
2021/01/04 18:41:44;;;;;;;7.30;3.77;;;3.60;99.90;;;;;;4955810;29;20208;-74
2021/01/04 18:44:11;;;;;;;6.70;3.20;;;3.60;99.90;;;;;;4956239;28;20212;-77
2021/01/04 18:46:38;;;;;;;6.40;3.73;;;3.60;99.90;;;;;;4955568;28;20208;-78
2021/01/04 18:49:04;;;;;;;8.47;3.70;;;3.60;99.90;;;;;;4955844;29;20599;-77
2021/01/04 18:51:35;;;;;;;7.50;3.37;;;3.80;99.90;;;;;;4955697;29;20216;-75
2021/01/04 18:54:02;;;;;;;6.33;3.80;;;3.80;99.90;;;;;;4955255;28;20232;-79
2021/01/04 18:56:29;;;;;;;7.43;3.77;;;3.90;99.90;;;;;;4955904;29;20272;-77
2021/01/04 18:58:57;;;;;;;7.73;3.27;;;3.90;99.90;;;;;;4955657;29;20793;-74
2021/01/04 19:01:23;;;;;;;7.37;3.63;;;4.00;99.90;;;;;;4955349;29;20215;-74
2021/01/04 19:03:50;;;;;;;6.97;3.53;;;3.90;99.90;;;;;;4954965;28;20625;-79
2021/01/04 19:06:20;;;;;;;5.97;3.67;;;3.80;99.90;;;;;;4952189;28;20212;-78
2021/01/04 19:08:47;;;;;;;4.73;3.20;;;3.70;99.90;;;;;;4955644;29;20223;-80
2021/01/04 19:11:20;;;;;;;6.00;3.87;;;3.80;99.90;;;;;;4955017;28;20255;-80
2021/01/04 19:13:47;;;;;;;7.83;3.80;;;4.00;99.90;;;;;;4955259;29;20240;-79
2021/01/04 19:16:13;;;;;;;6.00;3.40;;;4.10;99.90;;;;;;4955206;28;20271;-80
2021/01/04 19:18:39;;;;;;;6.23;3.47;;;4.10;99.90;;;;;;4955615;29;20243;-80
2021/01/04 19:21:05;;;;;;;9.70;4.17;;;4.00;99.90;;;;;;4955165;29;20827;-80
2021/01/04 19:23:32;;;;;;;5.30;3.30;;;4.20;99.90;;;;;;4955504;29;20220;-80
2021/01/04 19:25:59;;;;;;;5.67;3.40;;;4.10;99.90;;;;;;4944350;28;20264;-79
2021/01/04 19:28:25;;;;;;;7.00;3.43;;;4.10;99.90;;;;;;4945670;29;20275;-80
2021/01/04 19:30:55;;;;;;;6.83;3.03;;;4.10;99.90;;;;;;4945485;29;20205;-79
2021/01/04 19:33:21;;;;;;;6.43;3.30;;;4.10;99.90;;;;;;4952191;29;20235;-80
2021/01/04 19:35:47;;;;;;;6.17;3.47;;;3.90;99.90;;;;;;4951466;29;20216;-80
2021/01/04 19:38:14;;;;;;;6.87;3.57;;;4.00;99.90;;;;;;4945221;29;20821;-81
2021/01/04 19:40:40;;;;;;;8.77;3.70;;;4.10;99.90;;;;;;4943932;29;20200;-81
2021/01/04 19:43:07;;;;;;;5.57;3.30;;;4.20;99.90;;;;;;4946118;29;20252;-78
2021/01/04 19:45:34;;;;;;;6.10;3.10;;;4.30;99.90;;;;;;4948185;28;20212;-81
2021/01/04 19:48:00;;;;;;;6.73;3.60;;;4.10;99.90;;;;;;4954268;29;20729;-77
2021/01/04 19:50:27;;;;;;;7.03;3.07;;;4.20;99.90;;;;;;4954528;29;20220;-78
2021/01/04 19:52:53;;;;;;;6.63;3.37;;;4.20;99.90;;;;;;4954621;29;20584;-77
2021/01/04 19:55:19;;;;;;;5.53;3.10;;;4.10;99.90;;;;;;4954854;29;20594;-77
2021/01/04 19:57:48;;;;;;;5.47;2.63;;;4.10;99.90;;;;;;4954956;29;20231;-77
2021/01/04 20:00:16;;;;;;;7.07;3.10;;;3.90;99.90;;;;;;4951264;29;20263;-77
2021/01/04 20:02:42;;;;;;;6.57;3.40;;;4.00;99.90;;;;;;4944633;29;20196;-77
2021/01/04 20:05:10;;;;;;;10.27;2.90;;;4.10;99.90;;;;;;4947252;29;20209;-77
2021/01/04 20:07:36;;;;;;;5.20;3.20;;;4.20;99.90;;;;;;4943534;29;20576;-77
2021/01/04 20:10:05;;;;;;;5.47;2.70;;;4.10;99.90;;;;;;4935447;29;20228;-77
2021/01/04 20:12:31;;;;;;;7.53;2.80;;;4.00;99.90;;;;;;4935646;29;20213;-77
2021/01/04 20:14:57;;;;;;;5.50;3.10;;;4.00;99.90;;;;;;4935678;29;20236;-78
2021/01/04 20:17:25;;;;;;;5.83;3.30;;;3.90;99.90;;;;;;4935413;29;20237;-77
2021/01/04 20:19:51;;;;;;;4.90;2.77;;;4.00;99.90;;;;;;4935866;29;20220;-77
2021/01/04 20:22:18;;;;;;;9.67;3.47;;;3.90;99.90;;;;;;4935282;29;20216;-77
2021/01/04 20:24:44;;;;;;;4.70;2.50;;;3.90;99.90;;;;;;4935752;29;20573;-77
2021/01/04 20:27:11;;;;;;;4.77;2.63;;;3.80;99.90;;;;;;4935923;29;20257;-77
2021/01/04 20:29:39;;;;;;;4.50;2.70;;;3.80;99.90;;;;;;4935758;29;20248;-77
2021/01/04 20:32:07;;;;;;;5.63;2.83;;;3.90;99.90;;;;;;4935893;29;20664;-77
2021/01/04 20:34:37;;;;;;;4.23;2.60;;;3.90;99.90;;;;;;4935895;29;20240;-77
2021/01/04 20:37:08;;;;;;;4.97;2.60;;;3.90;99.90;;;;;;4935552;29;20672;-76
2021/01/04 20:39:36;;;;;;;6.47;3.10;;;3.90;99.90;;;;;;4935831;29;20220;-78
2021/01/04 20:42:03;;;;;;;3.60;2.60;;;3.90;99.90;;;;;;4935380;29;20563;-77
2021/01/04 20:44:31;;;;;;;4.73;2.80;;;3.70;99.90;;;;;;4935645;29;20209;-77
2021/01/04 20:46:58;;;;;;;4.93;2.73;;;3.60;99.90;;;;;;4935668;29;20672;-77
2021/01/04 20:49:25;;;;;;;4.00;2.27;;;3.60;99.90;;;;;;4935699;29;20216;-78
2021/01/04 20:51:53;;;;;;;6.57;3.10;;;3.60;99.90;;;;;;4935328;29;20241;-78
2021/01/04 20:54:23;;;;;;;6.27;3.00;;;3.60;99.90;;;;;;4935360;29;20237;-77
2021/01/04 20:56:51;;;;;;;5.20;2.60;;;3.70;99.90;;;;;;4935518;29;20208;-77
2021/01/04 20:59:17;;;;;;;4.40;2.93;;;3.80;99.90;;;;;;4935653;29;20217;-77
2021/01/04 21:01:44;;;;;;;7.07;3.30;;;3.70;99.90;;;;;;4935628;29;20560;-78
2021/01/04 21:04:11;;;;;;;6.40;3.23;;;3.70;99.90;;;;;;4935285;29;20209;-77
2021/01/04 21:06:39;;;;;;;7.37;3.47;;;3.80;99.90;;;;;;4935469;29;20213;-78
2021/01/04 21:09:08;;;;;;;6.27;3.30;;;4.00;99.90;;;;;;4935346;29;20712;-78
2021/01/04 21:11:35;;;;;;;6.50;3.37;;;4.00;99.90;;;;;;4935600;29;20220;-77
2021/01/04 21:14:02;;;;;;;4.97;3.07;;;4.10;99.90;;;;;;4935342;29;20714;-77
2021/01/04 21:16:28;;;;;;;5.43;3.17;;;4.10;99.90;;;;;;4935427;29;20223;-78
2021/01/04 21:18:55;;;;;;;5.63;3.27;;;3.90;99.90;;;;;;4935366;29;20225;-77
2021/01/04 21:21:22;;;;;;;5.10;2.97;;;3.90;99.90;;;;;;4935184;29;20307;-77
2021/01/04 21:23:49;;;;;;;6.63;3.20;;;4.00;99.90;;;;;;4935514;29;20703;-77
2021/01/04 21:26:17;;;;;;;6.03;3.47;;;4.10;99.90;;;;;;4935289;29;20212;-78
2021/01/04 21:28:45;;;;;;;9.53;3.40;;;4.00;99.90;;;;;;4935163;29;20272;-78
2021/01/04 21:31:11;;;;;;;5.13;3.60;;;3.80;99.90;;;;;;4935101;29;20216;-77
2021/01/04 21:33:37;;;;;;;7.73;3.57;;;3.60;99.90;;;;;;4936214;29;20233;-77
2021/01/04 21:36:04;;;;;;;6.63;3.27;;;3.60;99.90;;;;;;4938846;29;20231;-77
2021/01/04 21:38:30;;;;;;;6.23;3.03;;;3.70;99.90;;;;;;4938297;29;20239;-77
2021/01/04 21:40:56;;;;;;;5.30;3.13;;;3.40;99.90;;;;;;4938819;29;20208;-77
2021/01/04 21:43:23;;;;;;;5.67;3.33;;;3.50;99.90;;;;;;4938598;29;20213;-76
2021/01/04 21:45:50;;;;;;;8.57;3.30;;;3.60;99.90;;;;;;4938711;29;20205;-77
2021/01/04 21:48:16;;;;;;;5.93;3.53;;;3.60;99.90;;;;;;4938520;29;20229;-77
2021/01/04 21:50:44;;;;;;;6.67;3.50;;;3.70;99.90;;;;;;4938367;29;20213;-77
2021/01/04 21:53:10;;;;;;;4.53;2.73;;;3.70;99.90;;;;;;4938466;29;20209;-78
2021/01/04 21:55:36;;;;;;;5.00;3.10;;;3.90;99.90;;;;;;4938383;29;20209;-77
2021/01/04 21:58:04;;;;;;;5.93;3.00;;;3.90;99.90;;;;;;4938275;29;20236;-77
2021/01/04 22:00:31;;;;;;;6.43;3.50;;;4.00;99.90;;;;;;4938207;29;20205;-76
2021/01/04 22:02:57;;;;;;;8.03;3.30;;;4.20;99.90;;;;;;4938511;29;20264;-77
2021/01/04 22:05:24;;;;;;;6.10;3.30;;;4.10;99.90;;;;;;4938188;29;20695;-77
2021/01/04 22:07:50;;;;;;;4.80;2.90;;;4.00;99.90;;;;;;4938069;29;20229;-76
2021/01/04 22:10:17;;;;;;;5.83;3.30;;;4.00;99.90;;;;;;4938446;29;20572;-77
2021/01/04 22:12:43;;;;;;;5.17;2.77;;;4.00;99.90;;;;;;4938078;29;20620;-77
2021/01/04 22:15:12;;;;;;;5.87;3.30;;;3.80;99.90;;;;;;4937893;29;20284;-76
2021/01/04 22:17:39;;;;;;;5.87;3.30;;;3.80;99.90;;;;;;4938202;29;20284;-77
2021/01/04 22:20:07;;;;;;;5.67;2.53;;;3.70;99.90;;;;;;4937714;29;20209;-77
